sensor_id;sensor_type;location;lat;lon;timestamp;P1;durP1;ratioP1;P2;durP2;ratioP2
52730;SDS011;38624;53.242;6.974;2023-06-05T00:01:37;7.83;;;4.43;;
52730;SDS011;38624;53.242;6.974;2023-06-05T00:04:03;9.27;;;4.20;;
52730;SDS011;38624;53.242;6.974;2023-06-05T00:06:29;5.28;;;3.63;;
52730;SDS011;38624;53.242;6.974;2023-06-05T00:08:56;8.27;;;3.97;;
52730;SDS011;38624;53.242;6.974;2023-06-05T00:11:23;7.78;;;4.00;;
52730;SDS011;38624;53.242;6.974;2023-06-05T00:13:49;7.28;;;4.00;;
52730;SDS011;38624;53.242;6.974;2023-06-05T00:16:15;5.60;;;3.70;;
52730;SDS011;38624;53.242;6.974;2023-06-05T00:18:41;8.50;;;3.90;;
52730;SDS011;38624;53.242;6.974;2023-06-05T00:21:11;5.97;;;3.65;;
52730;SDS011;38624;53.242;6.974;2023-06-05T00:23:38;7.30;;;3.60;;
52730;SDS011;38624;53.242;6.974;2023-06-05T00:26:04;6.10;;;4.07;;
52730;SDS011;38624;53.242;6.974;2023-06-05T00:28:29;7.32;;;3.65;;
52730;SDS011;38624;53.242;6.974;2023-06-05T00:30:55;6.30;;;3.85;;
52730;SDS011;38624;53.242;6.974;2023-06-05T00:33:21;4.88;;;3.47;;
52730;SDS011;38624;53.242;6.974;2023-06-05T00:35:47;6.88;;;3.72;;
52730;SDS011;38624;53.242;6.974;2023-06-05T00:38:12;6.20;;;3.70;;
52730;SDS011;38624;53.242;6.974;2023-06-05T00:40:38;5.88;;;3.50;;
52730;SDS011;38624;53.242;6.974;2023-06-05T00:43:04;8.52;;;3.70;;
52730;SDS011;38624;53.242;6.974;2023-06-05T00:45:31;6.43;;;3.50;;
52730;SDS011;38624;53.242;6.974;2023-06-05T00:47:57;7.15;;;3.55;;
52730;SDS011;38624;53.242;6.974;2023-06-05T00:50:23;7.15;;;3.65;;
52730;SDS011;38624;53.242;6.974;2023-06-05T00:52:50;6.60;;;3.92;;
52730;SDS011;38624;53.242;6.974;2023-06-05T00:57:43;5.93;;;3.25;;
52730;SDS011;38624;53.242;6.974;2023-06-05T01:00:10;5.43;;;3.55;;
52730;SDS011;38624;53.242;6.974;2023-06-05T01:02:39;7.03;;;3.83;;
52730;SDS011;38624;53.242;6.974;2023-06-05T01:05:06;5.22;;;3.40;;
52730;SDS011;38624;53.242;6.974;2023-06-05T01:07:32;6.28;;;3.42;;
52730;SDS011;38624;53.242;6.974;2023-06-05T01:10:02;8.73;;;3.63;;
52730;SDS011;38624;53.242;6.974;2023-06-05T01:12:32;6.88;;;3.50;;
52730;SDS011;38624;53.242;6.974;2023-06-05T01:15:11;6.60;;;3.92;;
52730;SDS011;38624;53.242;6.974;2023-06-05T01:17:37;8.07;;;4.13;;
52730;SDS011;38624;53.242;6.974;2023-06-05T01:20:04;6.70;;;3.33;;
52730;SDS011;38624;53.242;6.974;2023-06-05T01:22:37;6.35;;;3.65;;
52730;SDS011;38624;53.242;6.974;2023-06-05T01:25:06;7.72;;;3.30;;
52730;SDS011;38624;53.242;6.974;2023-06-05T01:32:54;5.28;;;3.28;;
52730;SDS011;38624;53.242;6.974;2023-06-05T01:35:27;7.38;;;3.05;;
52730;SDS011;38624;53.242;6.974;2023-06-05T01:37:58;5.90;;;3.22;;
52730;SDS011;38624;53.242;6.974;2023-06-05T01:40:27;5.63;;;3.08;;
52730;SDS011;38624;53.242;6.974;2023-06-05T01:42:55;5.20;;;3.13;;
52730;SDS011;38624;53.242;6.974;2023-06-05T01:45:23;7.47;;;3.35;;
52730;SDS011;38624;53.242;6.974;2023-06-05T01:47:50;5.20;;;3.25;;
52730;SDS011;38624;53.242;6.974;2023-06-05T01:50:16;5.60;;;3.05;;
52730;SDS011;38624;53.242;6.974;2023-06-05T01:55:14;6.57;;;2.70;;
52730;SDS011;38624;53.242;6.974;2023-06-05T01:57:42;6.47;;;3.10;;
52730;SDS011;38624;53.242;6.974;2023-06-05T02:00:08;3.95;;;2.63;;
52730;SDS011;38624;53.242;6.974;2023-06-05T02:02:39;5.88;;;3.10;;
52730;SDS011;38624;53.242;6.974;2023-06-05T02:05:11;6.15;;;3.20;;
52730;SDS011;38624;53.242;6.974;2023-06-05T02:07:38;5.50;;;3.00;;
52730;SDS011;38624;53.242;6.974;2023-06-05T02:10:06;5.57;;;3.08;;
52730;SDS011;38624;53.242;6.974;2023-06-05T02:12:32;5.10;;;2.80;;
52730;SDS011;38624;53.242;6.974;2023-06-05T02:14:59;5.60;;;2.88;;
52730;SDS011;38624;53.242;6.974;2023-06-05T02:17:25;6.10;;;3.00;;
52730;SDS011;38624;53.242;6.974;2023-06-05T02:19:51;6.40;;;3.30;;
52730;SDS011;38624;53.242;6.974;2023-06-05T02:22:17;4.88;;;3.17;;
52730;SDS011;38624;53.242;6.974;2023-06-05T02:24:44;4.72;;;2.78;;
52730;SDS011;38624;53.242;6.974;2023-06-05T02:27:10;4.80;;;2.97;;
52730;SDS011;38624;53.242;6.974;2023-06-05T02:29:39;5.35;;;3.10;;
52730;SDS011;38624;53.242;6.974;2023-06-05T02:32:05;5.88;;;3.17;;
52730;SDS011;38624;53.242;6.974;2023-06-05T02:34:31;6.97;;;3.58;;
52730;SDS011;38624;53.242;6.974;2023-06-05T02:36:58;5.45;;;3.10;;
52730;SDS011;38624;53.242;6.974;2023-06-05T02:39:24;5.50;;;2.85;;
52730;SDS011;38624;53.242;6.974;2023-06-05T02:41:51;5.53;;;3.17;;
52730;SDS011;38624;53.242;6.974;2023-06-05T02:44:18;6.53;;;3.20;;
52730;SDS011;38624;53.242;6.974;2023-06-05T02:46:43;5.43;;;3.13;;
52730;SDS011;38624;53.242;6.974;2023-06-05T02:49:09;5.70;;;3.10;;
52730;SDS011;38624;53.242;6.974;2023-06-05T02:51:35;4.72;;;3.08;;
52730;SDS011;38624;53.242;6.974;2023-06-05T02:54:01;5.38;;;3.40;;
52730;SDS011;38624;53.242;6.974;2023-06-05T02:56:26;5.18;;;2.95;;
52730;SDS011;38624;53.242;6.974;2023-06-05T02:58:52;5.97;;;3.70;;
52730;SDS011;38624;53.242;6.974;2023-06-05T03:01:19;6.03;;;3.67;;
52730;SDS011;38624;53.242;6.974;2023-06-05T03:03:46;4.18;;;3.30;;
52730;SDS011;38624;53.242;6.974;2023-06-05T03:06:13;6.18;;;3.22;;
52730;SDS011;38624;53.242;6.974;2023-06-05T03:08:42;5.05;;;3.00;;
52730;SDS011;38624;53.242;6.974;2023-06-05T03:11:09;7.82;;;3.40;;
52730;SDS011;38624;53.242;6.974;2023-06-05T03:13:35;4.88;;;3.30;;
52730;SDS011;38624;53.242;6.974;2023-06-05T03:16:00;4.60;;;3.40;;
52730;SDS011;38624;53.242;6.974;2023-06-05T03:18:27;7.22;;;3.20;;
52730;SDS011;38624;53.242;6.974;2023-06-05T03:20:53;6.55;;;3.10;;
52730;SDS011;38624;53.242;6.974;2023-06-05T03:23:23;7.70;;;3.45;;
52730;SDS011;38624;53.242;6.974;2023-06-05T03:25:50;5.30;;;3.78;;
52730;SDS011;38624;53.242;6.974;2023-06-05T03:28:16;7.57;;;3.60;;
52730;SDS011;38624;53.242;6.974;2023-06-05T03:30:43;4.55;;;3.45;;
52730;SDS011;38624;53.242;6.974;2023-06-05T03:33:09;6.75;;;3.40;;
52730;SDS011;38624;53.242;6.974;2023-06-05T03:35:35;4.80;;;3.45;;
52730;SDS011;38624;53.242;6.974;2023-06-05T03:38:01;8.43;;;3.47;;
52730;SDS011;38624;53.242;6.974;2023-06-05T03:40:28;8.15;;;3.92;;
52730;SDS011;38624;53.242;6.974;2023-06-05T03:42:54;7.35;;;3.45;;
52730;SDS011;38624;53.242;6.974;2023-06-05T03:45:20;6.25;;;3.60;;
52730;SDS011;38624;53.242;6.974;2023-06-05T03:47:47;5.45;;;3.25;;
52730;SDS011;38624;53.242;6.974;2023-06-05T03:50:14;4.90;;;3.20;;
52730;SDS011;38624;53.242;6.974;2023-06-05T03:52:42;4.93;;;3.13;;
52730;SDS011;38624;53.242;6.974;2023-06-05T03:55:08;7.18;;;3.45;;
52730;SDS011;38624;53.242;6.974;2023-06-05T03:57:38;5.03;;;3.10;;
52730;SDS011;38624;53.242;6.974;2023-06-05T04:00:07;6.30;;;3.42;;
52730;SDS011;38624;53.242;6.974;2023-06-05T04:02:36;6.25;;;3.40;;
52730;SDS011;38624;53.242;6.974;2023-06-05T04:05:02;4.70;;;3.30;;
52730;SDS011;38624;53.242;6.974;2023-06-05T04:07:29;4.75;;;3.17;;
52730;SDS011;38624;53.242;6.974;2023-06-05T04:09:55;4.67;;;2.97;;
52730;SDS011;38624;53.242;6.974;2023-06-05T04:12:21;5.32;;;3.10;;
52730;SDS011;38624;53.242;6.974;2023-06-05T04:14:47;4.43;;;2.90;;
52730;SDS011;38624;53.242;6.974;2023-06-05T04:17:13;7.97;;;2.70;;
52730;SDS011;38624;53.242;6.974;2023-06-05T04:19:39;5.40;;;2.87;;
52730;SDS011;38624;53.242;6.974;2023-06-05T04:22:05;5.90;;;3.30;;
52730;SDS011;38624;53.242;6.974;2023-06-05T04:24:31;4.93;;;3.47;;
52730;SDS011;38624;53.242;6.974;2023-06-05T04:26:57;4.07;;;3.20;;
52730;SDS011;38624;53.242;6.974;2023-06-05T04:29:25;5.90;;;3.28;;
52730;SDS011;38624;53.242;6.974;2023-06-05T04:31:52;6.28;;;3.17;;
52730;SDS011;38624;53.242;6.974;2023-06-05T04:34:18;4.63;;;3.10;;
52730;SDS011;38624;53.242;6.974;2023-06-05T04:36:44;5.22;;;3.28;;
52730;SDS011;38624;53.242;6.974;2023-06-05T04:39:10;4.50;;;2.92;;
52730;SDS011;38624;53.242;6.974;2023-06-05T04:41:45;5.63;;;2.50;;
52730;SDS011;38624;53.242;6.974;2023-06-05T04:46:42;4.40;;;2.67;;
52730;SDS011;38624;53.242;6.974;2023-06-05T04:49:12;4.07;;;3.00;;
52730;SDS011;38624;53.242;6.974;2023-06-05T04:51:39;4.38;;;2.83;;
52730;SDS011;38624;53.242;6.974;2023-06-05T04:54:05;4.38;;;2.88;;
52730;SDS011;38624;53.242;6.974;2023-06-05T04:56:32;5.63;;;3.08;;
52730;SDS011;38624;53.242;6.974;2023-06-05T04:58:59;4.28;;;2.80;;
52730;SDS011;38624;53.242;6.974;2023-06-05T05:01:27;5.00;;;2.88;;
52730;SDS011;38624;53.242;6.974;2023-06-05T05:03:53;4.25;;;2.65;;
52730;SDS011;38624;53.242;6.974;2023-06-05T05:06:19;3.80;;;2.67;;
52730;SDS011;38624;53.242;6.974;2023-06-05T05:08:46;3.95;;;2.30;;
52730;SDS011;38624;53.242;6.974;2023-06-05T05:11:15;3.35;;;2.63;;
52730;SDS011;38624;53.242;6.974;2023-06-05T05:13:41;4.10;;;2.35;;
52730;SDS011;38624;53.242;6.974;2023-06-05T05:16:08;5.30;;;2.63;;
52730;SDS011;38624;53.242;6.974;2023-06-05T05:18:34;3.45;;;2.30;;
52730;SDS011;38624;53.242;6.974;2023-06-05T05:21:02;4.95;;;2.50;;
52730;SDS011;38624;53.242;6.974;2023-06-05T05:23:28;5.10;;;2.72;;
52730;SDS011;38624;53.242;6.974;2023-06-05T05:25:53;5.10;;;3.00;;
52730;SDS011;38624;53.242;6.974;2023-06-05T05:28:19;4.03;;;2.63;;
52730;SDS011;38624;53.242;6.974;2023-06-05T05:30:45;3.85;;;2.90;;
52730;SDS011;38624;53.242;6.974;2023-06-05T05:33:10;6.32;;;3.05;;
52730;SDS011;38624;53.242;6.974;2023-06-05T05:35:36;5.18;;;2.50;;
52730;SDS011;38624;53.242;6.974;2023-06-05T05:38:02;3.33;;;2.00;;
52730;SDS011;38624;53.242;6.974;2023-06-05T05:40:27;4.50;;;2.33;;
52730;SDS011;38624;53.242;6.974;2023-06-05T05:42:53;3.33;;;2.28;;
52730;SDS011;38624;53.242;6.974;2023-06-05T05:45:19;3.22;;;2.22;;
52730;SDS011;38624;53.242;6.974;2023-06-05T05:47:44;3.17;;;2.13;;
52730;SDS011;38624;53.242;6.974;2023-06-05T05:50:10;3.50;;;2.40;;
52730;SDS011;38624;53.242;6.974;2023-06-05T05:52:36;4.45;;;2.72;;
52730;SDS011;38624;53.242;6.974;2023-06-05T05:55:01;4.35;;;2.30;;
52730;SDS011;38624;53.242;6.974;2023-06-05T05:57:28;3.95;;;2.20;;
52730;SDS011;38624;53.242;6.974;2023-06-05T05:59:54;5.25;;;2.30;;
52730;SDS011;38624;53.242;6.974;2023-06-05T06:02:20;3.53;;;2.03;;
52730;SDS011;38624;53.242;6.974;2023-06-05T06:04:46;4.13;;;2.33;;
52730;SDS011;38624;53.242;6.974;2023-06-05T06:07:13;6.22;;;2.30;;
52730;SDS011;38624;53.242;6.974;2023-06-05T06:09:39;4.03;;;2.00;;
52730;SDS011;38624;53.242;6.974;2023-06-05T06:12:05;3.88;;;2.33;;
52730;SDS011;38624;53.242;6.974;2023-06-05T06:14:35;3.83;;;2.42;;
52730;SDS011;38624;53.242;6.974;2023-06-05T06:17:01;3.53;;;2.00;;
52730;SDS011;38624;53.242;6.974;2023-06-05T06:19:27;3.55;;;2.17;;
52730;SDS011;38624;53.242;6.974;2023-06-05T06:21:54;3.38;;;2.17;;
52730;SDS011;38624;53.242;6.974;2023-06-05T06:24:20;4.20;;;2.22;;
52730;SDS011;38624;53.242;6.974;2023-06-05T06:26:46;3.70;;;2.28;;
52730;SDS011;38624;53.242;6.974;2023-06-05T06:29:14;7.80;;;2.10;;
52730;SDS011;38624;53.242;6.974;2023-06-05T06:31:43;3.03;;;2.05;;
52730;SDS011;38624;53.242;6.974;2023-06-05T06:34:09;3.63;;;2.20;;
52730;SDS011;38624;53.242;6.974;2023-06-05T06:36:36;6.10;;;2.47;;
52730;SDS011;38624;53.242;6.974;2023-06-05T06:39:06;4.95;;;2.05;;
52730;SDS011;38624;53.242;6.974;2023-06-05T06:41:35;4.43;;;2.40;;
52730;SDS011;38624;53.242;6.974;2023-06-05T06:44:01;5.20;;;2.23;;
52730;SDS011;38624;53.242;6.974;2023-06-05T06:46:27;5.60;;;2.60;;
52730;SDS011;38624;53.242;6.974;2023-06-05T06:48:52;6.07;;;2.63;;
52730;SDS011;38624;53.242;6.974;2023-06-05T06:51:18;3.45;;;2.30;;
52730;SDS011;38624;53.242;6.974;2023-06-05T06:53:44;6.07;;;2.22;;
52730;SDS011;38624;53.242;6.974;2023-06-05T06:56:10;5.82;;;2.42;;
52730;SDS011;38624;53.242;6.974;2023-06-05T06:58:36;3.67;;;2.20;;
52730;SDS011;38624;53.242;6.974;2023-06-05T07:01:01;3.90;;;2.05;;
52730;SDS011;38624;53.242;6.974;2023-06-05T07:03:28;2.92;;;1.83;;
52730;SDS011;38624;53.242;6.974;2023-06-05T07:05:54;3.92;;;2.50;;
52730;SDS011;38624;53.242;6.974;2023-06-05T07:08:20;3.50;;;2.47;;
52730;SDS011;38624;53.242;6.974;2023-06-05T07:10:46;3.72;;;2.13;;
52730;SDS011;38624;53.242;6.974;2023-06-05T07:13:11;4.70;;;1.92;;
52730;SDS011;38624;53.242;6.974;2023-06-05T07:15:37;4.57;;;2.42;;
52730;SDS011;38624;53.242;6.974;2023-06-05T07:18:03;3.53;;;2.10;;
52730;SDS011;38624;53.242;6.974;2023-06-05T07:20:29;4.83;;;2.57;;
52730;SDS011;38624;53.242;6.974;2023-06-05T07:22:54;3.17;;;2.20;;
52730;SDS011;38624;53.242;6.974;2023-06-05T07:25:20;2.93;;;2.20;;
52730;SDS011;38624;53.242;6.974;2023-06-05T07:27:49;3.45;;;2.40;;
52730;SDS011;38624;53.242;6.974;2023-06-05T07:30:15;4.95;;;2.30;;
52730;SDS011;38624;53.242;6.974;2023-06-05T07:32:41;3.13;;;2.20;;
52730;SDS011;38624;53.242;6.974;2023-06-05T07:35:08;4.57;;;2.20;;
52730;SDS011;38624;53.242;6.974;2023-06-05T07:37:34;4.65;;;2.05;;
52730;SDS011;38624;53.242;6.974;2023-06-05T07:40:01;3.30;;;1.98;;
52730;SDS011;38624;53.242;6.974;2023-06-05T07:42:27;4.45;;;2.03;;
52730;SDS011;38624;53.242;6.974;2023-06-05T07:44:53;4.18;;;2.47;;
52730;SDS011;38624;53.242;6.974;2023-06-05T07:47:19;2.72;;;2.10;;
52730;SDS011;38624;53.242;6.974;2023-06-05T07:49:44;4.57;;;2.67;;
52730;SDS011;38624;53.242;6.974;2023-06-05T07:52:25;6.05;;;3.00;;
52730;SDS011;38624;53.242;6.974;2023-06-05T07:54:52;5.50;;;2.83;;
52730;SDS011;38624;53.242;6.974;2023-06-05T07:57:18;7.40;;;3.40;;
52730;SDS011;38624;53.242;6.974;2023-06-05T07:59:44;6.38;;;3.30;;
52730;SDS011;38624;53.242;6.974;2023-06-05T08:02:11;8.00;;;2.50;;
52730;SDS011;38624;53.242;6.974;2023-06-05T08:04:37;3.28;;;2.13;;
52730;SDS011;38624;53.242;6.974;2023-06-05T08:07:04;4.35;;;2.72;;
52730;SDS011;38624;53.242;6.974;2023-06-05T08:09:30;6.15;;;3.10;;
52730;SDS011;38624;53.242;6.974;2023-06-05T08:11:59;4.00;;;2.97;;
52730;SDS011;38624;53.242;6.974;2023-06-05T08:14:25;4.63;;;3.00;;
52730;SDS011;38624;53.242;6.974;2023-06-05T08:16:51;3.60;;;2.05;;
52730;SDS011;38624;53.242;6.974;2023-06-05T08:19:17;3.83;;;2.42;;
52730;SDS011;38624;53.242;6.974;2023-06-05T08:21:42;4.32;;;2.65;;
52730;SDS011;38624;53.242;6.974;2023-06-05T08:24:08;3.45;;;2.35;;
52730;SDS011;38624;53.242;6.974;2023-06-05T08:26:34;4.70;;;2.70;;
52730;SDS011;38624;53.242;6.974;2023-06-05T08:31:27;6.85;;;2.92;;
52730;SDS011;38624;53.242;6.974;2023-06-05T08:33:53;5.80;;;3.45;;
52730;SDS011;38624;53.242;6.974;2023-06-05T08:36:20;4.35;;;3.30;;
52730;SDS011;38624;53.242;6.974;2023-06-05T08:38:46;5.82;;;3.28;;
52730;SDS011;38624;53.242;6.974;2023-06-05T08:41:13;4.90;;;3.17;;
52730;SDS011;38624;53.242;6.974;2023-06-05T08:43:41;6.68;;;2.85;;
52730;SDS011;38624;53.242;6.974;2023-06-05T08:46:09;6.40;;;2.80;;
52730;SDS011;38624;53.242;6.974;2023-06-05T08:48:46;5.25;;;2.90;;
52730;SDS011;38624;53.242;6.974;2023-06-05T08:51:13;6.03;;;3.30;;
52730;SDS011;38624;53.242;6.974;2023-06-05T08:53:41;4.40;;;2.55;;
52730;SDS011;38624;53.242;6.974;2023-06-05T08:56:10;3.17;;;2.38;;
52730;SDS011;38624;53.242;6.974;2023-06-05T08:58:36;3.17;;;2.53;;
52730;SDS011;38624;53.242;6.974;2023-06-05T09:01:02;5.65;;;3.20;;
52730;SDS011;38624;53.242;6.974;2023-06-05T09:03:28;4.93;;;3.07;;
52730;SDS011;38624;53.242;6.974;2023-06-05T09:05:54;6.50;;;2.90;;
52730;SDS011;38624;53.242;6.974;2023-06-05T09:08:31;5.28;;;2.92;;
52730;SDS011;38624;53.242;6.974;2023-06-05T09:11:40;4.38;;;3.22;;
52730;SDS011;38624;53.242;6.974;2023-06-05T09:13:58;4.70;;;2.88;;
52730;SDS011;38624;53.242;6.974;2023-06-05T09:19:02;5.00;;;2.63;;
52730;SDS011;38624;53.242;6.974;2023-06-05T09:21:29;8.60;;;3.03;;
52730;SDS011;38624;53.242;6.974;2023-06-05T09:24:31;5.05;;;2.78;;
52730;SDS011;38624;53.242;6.974;2023-06-05T09:26:54;5.60;;;3.28;;
52730;SDS011;38624;53.242;6.974;2023-06-05T09:31:58;3.65;;;2.25;;
52730;SDS011;38624;53.242;6.974;2023-06-05T09:34:44;5.32;;;3.28;;
52730;SDS011;38624;53.242;6.974;2023-06-05T09:37:11;5.78;;;3.22;;
52730;SDS011;38624;53.242;6.974;2023-06-05T09:39:39;5.10;;;3.33;;
52730;SDS011;38624;53.242;6.974;2023-06-05T09:42:05;6.93;;;3.00;;
52730;SDS011;38624;53.242;6.974;2023-06-05T09:44:32;4.82;;;2.80;;
52730;SDS011;38624;53.242;6.974;2023-06-05T09:52:07;4.28;;;2.63;;
52730;SDS011;38624;53.242;6.974;2023-06-05T09:54:36;4.63;;;2.67;;
52730;SDS011;38624;53.242;6.974;2023-06-05T09:57:04;6.93;;;2.75;;
52730;SDS011;38624;53.242;6.974;2023-06-05T09:59:31;4.13;;;1.98;;
52730;SDS011;38624;53.242;6.974;2023-06-05T10:04:32;8.18;;;2.70;;
52730;SDS011;38624;53.242;6.974;2023-06-05T10:07:03;3.83;;;2.30;;
52730;SDS011;38624;53.242;6.974;2023-06-05T10:09:30;6.28;;;2.70;;
52730;SDS011;38624;53.242;6.974;2023-06-05T10:11:59;7.57;;;2.67;;
52730;SDS011;38624;53.242;6.974;2023-06-05T10:14:25;5.70;;;3.10;;
52730;SDS011;38624;53.242;6.974;2023-06-05T10:16:51;5.30;;;2.77;;
52730;SDS011;38624;53.242;6.974;2023-06-05T10:19:18;5.07;;;2.63;;
52730;SDS011;38624;53.242;6.974;2023-06-05T10:21:47;3.30;;;2.28;;
52730;SDS011;38624;53.242;6.974;2023-06-05T10:24:18;4.25;;;2.83;;
52730;SDS011;38624;53.242;6.974;2023-06-05T10:40:41;5.53;;;2.80;;
52730;SDS011;38624;53.242;6.974;2023-06-05T10:43:26;4.18;;;2.70;;
52730;SDS011;38624;53.242;6.974;2023-06-05T10:45:53;3.30;;;2.40;;
52730;SDS011;38624;53.242;6.974;2023-06-05T10:50:45;3.97;;;2.35;;
52730;SDS011;38624;53.242;6.974;2023-06-05T10:56:28;4.50;;;2.75;;
52730;SDS011;38624;53.242;6.974;2023-06-05T10:59:14;5.78;;;2.55;;
52730;SDS011;38624;53.242;6.974;2023-06-05T11:01:40;4.00;;;2.22;;
52730;SDS011;38624;53.242;6.974;2023-06-05T11:04:06;4.10;;;2.57;;
52730;SDS011;38624;53.242;6.974;2023-06-05T11:06:32;4.80;;;2.53;;
52730;SDS011;38624;53.242;6.974;2023-06-05T11:09:13;5.40;;;2.47;;
52730;SDS011;38624;53.242;6.974;2023-06-05T11:11:56;6.88;;;2.88;;
52730;SDS011;38624;53.242;6.974;2023-06-05T11:14:23;4.18;;;2.47;;
52730;SDS011;38624;53.242;6.974;2023-06-05T11:16:50;4.10;;;2.67;;
52730;SDS011;38624;53.242;6.974;2023-06-05T11:24:33;5.75;;;2.58;;
52730;SDS011;38624;53.242;6.974;2023-06-05T11:27:00;3.78;;;2.38;;
52730;SDS011;38624;53.242;6.974;2023-06-05T11:29:26;4.65;;;2.28;;
52730;SDS011;38624;53.242;6.974;2023-06-05T11:31:54;4.00;;;2.53;;
52730;SDS011;38624;53.242;6.974;2023-06-05T11:34:20;4.88;;;2.15;;
52730;SDS011;38624;53.242;6.974;2023-06-05T11:36:46;5.22;;;2.90;;
52730;SDS011;38624;53.242;6.974;2023-06-05T11:39:13;3.60;;;2.70;;
52730;SDS011;38624;53.242;6.974;2023-06-05T11:41:45;4.72;;;2.58;;
52730;SDS011;38624;53.242;6.974;2023-06-05T11:44:13;3.83;;;2.30;;
52730;SDS011;38624;53.242;6.974;2023-06-05T11:46:40;8.82;;;2.42;;
52730;SDS011;38624;53.242;6.974;2023-06-05T11:49:26;4.85;;;2.65;;
52730;SDS011;38624;53.242;6.974;2023-06-05T11:51:54;6.25;;;3.10;;
52730;SDS011;38624;53.242;6.974;2023-06-05T11:54:27;3.83;;;2.70;;
52730;SDS011;38624;53.242;6.974;2023-06-05T11:56:58;4.70;;;2.92;;
52730;SDS011;38624;53.242;6.974;2023-06-05T11:59:36;7.25;;;2.58;;
52730;SDS011;38624;53.242;6.974;2023-06-05T12:04:29;5.32;;;2.90;;
52730;SDS011;38624;53.242;6.974;2023-06-05T12:06:56;4.95;;;3.03;;
52730;SDS011;38624;53.242;6.974;2023-06-05T12:09:22;7.07;;;2.85;;
52730;SDS011;38624;53.242;6.974;2023-06-05T12:11:48;4.07;;;3.10;;
52730;SDS011;38624;53.242;6.974;2023-06-05T12:14:30;4.10;;;2.70;;
52730;SDS011;38624;53.242;6.974;2023-06-05T12:16:56;5.10;;;3.00;;
52730;SDS011;38624;53.242;6.974;2023-06-05T12:19:22;4.67;;;3.13;;
52730;SDS011;38624;53.242;6.974;2023-06-05T12:21:48;6.00;;;3.10;;
52730;SDS011;38624;53.242;6.974;2023-06-05T12:24:26;4.35;;;3.13;;
52730;SDS011;38624;53.242;6.974;2023-06-05T12:29:24;7.72;;;3.50;;
52730;SDS011;38624;53.242;6.974;2023-06-05T12:31:53;5.95;;;3.00;;
52730;SDS011;38624;53.242;6.974;2023-06-05T12:34:35;5.75;;;3.20;;
52730;SDS011;38624;53.242;6.974;2023-06-05T12:37:05;6.53;;;3.60;;
52730;SDS011;38624;53.242;6.974;2023-06-05T12:39:33;9.13;;;3.95;;
52730;SDS011;38624;53.242;6.974;2023-06-05T12:41:59;5.00;;;2.90;;
52730;SDS011;38624;53.242;6.974;2023-06-05T12:44:24;7.10;;;3.50;;
52730;SDS011;38624;53.242;6.974;2023-06-05T12:46:50;7.33;;;4.10;;
52730;SDS011;38624;53.242;6.974;2023-06-05T12:49:16;5.83;;;3.70;;
52730;SDS011;38624;53.242;6.974;2023-06-05T12:51:41;6.00;;;2.97;;
52730;SDS011;38624;53.242;6.974;2023-06-05T12:54:08;5.28;;;3.35;;
52730;SDS011;38624;53.242;6.974;2023-06-05T12:56:35;4.68;;;3.00;;
52730;SDS011;38624;53.242;6.974;2023-06-05T12:59:01;6.40;;;3.20;;
52730;SDS011;38624;53.242;6.974;2023-06-05T13:01:27;4.80;;;3.30;;
52730;SDS011;38624;53.242;6.974;2023-06-05T13:03:54;10.07;;;4.00;;
52730;SDS011;38624;53.242;6.974;2023-06-05T13:06:21;5.63;;;2.65;;
52730;SDS011;38624;53.242;6.974;2023-06-05T13:08:46;6.13;;;3.40;;
52730;SDS011;38624;53.242;6.974;2023-06-05T13:11:12;4.30;;;2.77;;
52730;SDS011;38624;53.242;6.974;2023-06-05T13:13:39;5.65;;;3.63;;
52730;SDS011;38624;53.242;6.974;2023-06-05T13:16:05;6.03;;;3.33;;
52730;SDS011;38624;53.242;6.974;2023-06-05T13:18:32;6.07;;;2.60;;
52730;SDS011;38624;53.242;6.974;2023-06-05T13:20:58;5.97;;;3.60;;
52730;SDS011;38624;53.242;6.974;2023-06-05T13:23:25;6.05;;;3.80;;
52730;SDS011;38624;53.242;6.974;2023-06-05T13:25:52;6.25;;;3.88;;
52730;SDS011;38624;53.242;6.974;2023-06-05T13:28:17;6.77;;;3.73;;
52730;SDS011;38624;53.242;6.974;2023-06-05T13:30:43;9.23;;;3.50;;
52730;SDS011;38624;53.242;6.974;2023-06-05T13:33:09;5.13;;;3.50;;
52730;SDS011;38624;53.242;6.974;2023-06-05T13:35:34;7.90;;;4.00;;
52730;SDS011;38624;53.242;6.974;2023-06-05T13:38:00;8.43;;;4.00;;
52730;SDS011;38624;53.242;6.974;2023-06-05T13:40:26;5.63;;;3.53;;
52730;SDS011;38624;53.242;6.974;2023-06-05T13:42:55;5.70;;;3.90;;
52730;SDS011;38624;53.242;6.974;2023-06-05T13:45:21;4.50;;;3.60;;
52730;SDS011;38624;53.242;6.974;2023-06-05T13:47:47;6.57;;;3.60;;
52730;SDS011;38624;53.242;6.974;2023-06-05T13:50:12;10.47;;;4.00;;
52730;SDS011;38624;53.242;6.974;2023-06-05T13:52:38;7.47;;;4.00;;
52730;SDS011;38624;53.242;6.974;2023-06-05T13:55:04;9.57;;;4.30;;
52730;SDS011;38624;53.242;6.974;2023-06-05T13:57:31;6.60;;;4.65;;
52730;SDS011;38624;53.242;6.974;2023-06-05T13:59:56;9.77;;;4.70;;
52730;SDS011;38624;53.242;6.974;2023-06-05T14:02:22;8.77;;;4.10;;
52730;SDS011;38624;53.242;6.974;2023-06-05T14:04:48;5.87;;;2.80;;
52730;SDS011;38624;53.242;6.974;2023-06-05T14:07:13;7.70;;;3.97;;
52730;SDS011;38624;53.242;6.974;2023-06-05T14:09:39;5.13;;;3.40;;
52730;SDS011;38624;53.242;6.974;2023-06-05T14:12:06;6.22;;;3.22;;
52730;SDS011;38624;53.242;6.974;2023-06-05T14:14:32;4.55;;;3.22;;
52730;SDS011;38624;53.242;6.974;2023-06-05T14:16:57;8.13;;;4.30;;
52730;SDS011;38624;53.242;6.974;2023-06-05T14:19:23;5.40;;;3.60;;
52730;SDS011;38624;53.242;6.974;2023-06-05T14:21:49;6.73;;;4.13;;
52730;SDS011;38624;53.242;6.974;2023-06-05T14:24:15;8.93;;;3.77;;
52730;SDS011;38624;53.242;6.974;2023-06-05T14:26:40;7.00;;;3.30;;
52730;SDS011;38624;53.242;6.974;2023-06-05T14:29:06;5.60;;;2.60;;
52730;SDS011;38624;53.242;6.974;2023-06-05T14:31:32;8.50;;;4.33;;
52730;SDS011;38624;53.242;6.974;2023-06-05T14:33:57;7.53;;;3.57;;
52730;SDS011;38624;53.242;6.974;2023-06-05T14:36:23;9.00;;;3.37;;
52730;SDS011;38624;53.242;6.974;2023-06-05T14:38:49;6.53;;;3.92;;
52730;SDS011;38624;53.242;6.974;2023-06-05T14:41:15;9.07;;;3.60;;
52730;SDS011;38624;53.242;6.974;2023-06-05T14:43:41;7.10;;;4.53;;
52730;SDS011;38624;53.242;6.974;2023-06-05T14:46:06;9.67;;;4.37;;
52730;SDS011;38624;53.242;6.974;2023-06-05T14:48:32;5.23;;;3.33;;
52730;SDS011;38624;53.242;6.974;2023-06-05T14:50:58;9.10;;;3.97;;
52730;SDS011;38624;53.242;6.974;2023-06-05T14:53:24;8.90;;;4.70;;
52730;SDS011;38624;53.242;6.974;2023-06-05T14:55:49;10.20;;;4.83;;
52730;SDS011;38624;53.242;6.974;2023-06-05T14:58:15;9.13;;;4.27;;
52730;SDS011;38624;53.242;6.974;2023-06-05T15:00:42;8.63;;;4.00;;
52730;SDS011;38624;53.242;6.974;2023-06-05T15:03:07;7.93;;;4.87;;
52730;SDS011;38624;53.242;6.974;2023-06-05T15:05:33;9.83;;;4.10;;
52730;SDS011;38624;53.242;6.974;2023-06-05T15:07:59;8.30;;;3.60;;
52730;SDS011;38624;53.242;6.974;2023-06-05T15:10:25;5.10;;;4.13;;
52730;SDS011;38624;53.242;6.974;2023-06-05T15:12:52;8.63;;;4.47;;
52730;SDS011;38624;53.242;6.974;2023-06-05T15:15:22;8.27;;;4.30;;
52730;SDS011;38624;53.242;6.974;2023-06-05T15:17:48;6.13;;;3.45;;
52730;SDS011;38624;53.242;6.974;2023-06-05T15:20:17;11.55;;;5.15;;
52730;SDS011;38624;53.242;6.974;2023-06-05T15:22:43;6.43;;;3.45;;
52730;SDS011;38624;53.242;6.974;2023-06-05T15:25:09;9.80;;;3.87;;
52730;SDS011;38624;53.242;6.974;2023-06-05T15:27:35;6.17;;;3.40;;
52730;SDS011;38624;53.242;6.974;2023-06-05T15:30:01;6.43;;;4.00;;
52730;SDS011;38624;53.242;6.974;2023-06-05T15:32:27;7.10;;;3.10;;
52730;SDS011;38624;53.242;6.974;2023-06-05T15:34:52;5.30;;;3.20;;
52730;SDS011;38624;53.242;6.974;2023-06-05T15:37:18;7.93;;;3.13;;
52730;SDS011;38624;53.242;6.974;2023-06-05T15:39:44;8.30;;;3.57;;
52730;SDS011;38624;53.242;6.974;2023-06-05T15:42:09;5.53;;;3.20;;
52730;SDS011;38624;53.242;6.974;2023-06-05T15:44:38;4.97;;;2.53;;
52730;SDS011;38624;53.242;6.974;2023-06-05T15:47:05;5.85;;;2.70;;